N633XU BIKF-EGGP
Flight info
| Callsign | N633XU |
|---|---|
| Flight time | 2h 7m |
| Altitude | 47000 |
| Route | RIMUM1C RIMUM DCT RUMUX DCT RAPAX DCT ERAKA/N0506F390 DCT ETSOM DCT MAKUX DCT SOSIM L28 PENIL |
| Aircraft | C750/M-SBDE3FGHRWXY/S |
Departure
| Time | 2026-04-29 16:30 |
|---|---|
| Airport | Keflavik International Airport (BIKF) |
Arrival
| Time | 2026-04-29 18:37 |
|---|---|
| Airport | Liverpool John Lennon Airport (EGGP) |
| Time | Latitude | Longitude | Altitude | Speed | Heading |
|---|---|---|---|---|---|
| 2026-04-29 16:02 | 63.97440 | -22.59061 | 168 ft | 0 kts | 112° |
| 2026-04-29 16:25 | 63.97441 | -22.59055 | 168 ft | 0 kts | 77° |
| 2026-04-29 16:25 | 63.97445 | -22.59054 | 168 ft | 0 kts | 26° |
| 2026-04-29 16:25 | 63.97457 | -22.59082 | 169 ft | 6 kts | 296° |
| 2026-04-29 16:26 | 63.97468 | -22.59133 | 169 ft | 1 kts | 317° |
| 2026-04-29 16:26 | 63.97473 | -22.59139 | 170 ft | 2 kts | 329° |
| 2026-04-29 16:26 | 63.97501 | -22.59159 | 171 ft | 7 kts | 359° |
| 2026-04-29 16:26 | 63.97570 | -22.59106 | 171 ft | 14 kts | 20° |
| 2026-04-29 16:27 | 63.97686 | -22.58998 | 172 ft | 22 kts | 22° |
| 2026-04-29 16:27 | 63.97837 | -22.58857 | 171 ft | 25 kts | 22° |
| 2026-04-29 16:27 | 63.97991 | -22.58838 | 170 ft | 20 kts | 331° |
| 2026-04-29 16:27 | 63.98109 | -22.58938 | 171 ft | 17 kts | 340° |
| 2026-04-29 16:28 | 63.98214 | -22.59040 | 172 ft | 17 kts | 338° |
| 2026-04-29 16:28 | 63.98337 | -22.59156 | 173 ft | 21 kts | 337° |
| 2026-04-29 16:28 | 63.98478 | -22.59289 | 172 ft | 19 kts | 330° |
| 2026-04-29 16:28 | 63.98503 | -22.59520 | 174 ft | 17 kts | 269° |
| 2026-04-29 16:29 | 63.98503 | -22.59847 | 175 ft | 24 kts | 270° |
| 2026-04-29 16:29 | 63.98503 | -22.60284 | 172 ft | 32 kts | 270° |
| 2026-04-29 16:29 | 63.98486 | -22.60540 | 171 ft | 7 kts | 186° |
| 2026-04-29 16:29 | 63.98429 | -22.60540 | 171 ft | 15 kts | 180° |
| 2026-04-29 16:30 | 63.98026 | -22.60541 | 168 ft | 105 kts | 180° |
| 2026-04-29 16:30 | 63.97105 | -22.60551 | 263 ft | 147 kts | 182° |
| 2026-04-29 16:30 | 63.96051 | -22.60564 | 873 ft | 152 kts | 182° |
| 2026-04-29 16:30 | 63.94989 | -22.60509 | 1574 ft | 156 kts | 180° |
| 2026-04-29 16:31 | 63.93876 | -22.59800 | 2047 ft | 181 kts | 162° |
| 2026-04-29 16:31 | 63.92715 | -22.58339 | 2573 ft | 203 kts | 153° |
| 2026-04-29 16:31 | 63.91504 | -22.56531 | 3302 ft | 211 kts | 155° |
| 2026-04-29 16:31 | 63.90214 | -22.54892 | 4107 ft | 215 kts | 157° |
| 2026-04-29 16:32 | 63.88904 | -22.53210 | 5001 ft | 218 kts | 156° |
| 2026-04-29 16:32 | 63.87995 | -22.52053 | 5481 ft | 226 kts | 157° |
| 2026-04-29 16:32 | 63.86117 | -22.49717 | 6449 ft | 237 kts | 157° |
| 2026-04-29 16:32 | 63.84661 | -22.47987 | 7385 ft | 233 kts | 159° |
| 2026-04-29 16:33 | 63.81620 | -22.45119 | 8693 ft | 249 kts | 166° |
| 2026-04-29 16:33 | 63.79927 | -22.43773 | 9084 ft | 268 kts | 166° |
| 2026-04-29 16:33 | 63.78163 | -22.42231 | 9696 ft | 273 kts | 163° |
| 2026-04-29 16:34 | 63.76426 | -22.40545 | 10516 ft | 269 kts | 163° |
| 2026-04-29 16:34 | 63.74707 | -22.38866 | 11260 ft | 269 kts | 165° |
| 2026-04-29 16:34 | 63.73004 | -22.37204 | 11876 ft | 273 kts | 166° |
| 2026-04-29 16:34 | 63.71213 | -22.35472 | 12183 ft | 287 kts | 166° |
| 2026-04-29 16:35 | 63.69348 | -22.33729 | 12786 ft | 282 kts | 168° |
| 2026-04-29 16:35 | 63.67556 | -22.32199 | 13545 ft | 280 kts | 168° |
| 2026-04-29 16:35 | 63.65760 | -22.30229 | 13775 ft | 297 kts | 164° |
| 2026-04-29 16:35 | 63.63838 | -22.28168 | 14033 ft | 308 kts | 165° |
| 2026-04-29 16:36 | 63.61887 | -22.26114 | 14292 ft | 318 kts | 165° |
| 2026-04-29 16:36 | 63.59858 | -22.23934 | 14552 ft | 328 kts | 164° |
| 2026-04-29 16:36 | 63.57786 | -22.21688 | 14903 ft | 333 kts | 164° |
| 2026-04-29 16:36 | 63.55704 | -22.19443 | 15448 ft | 332 kts | 164° |
| 2026-04-29 16:37 | 63.53610 | -22.17218 | 15895 ft | 334 kts | 165° |
| 2026-04-29 16:37 | 63.51503 | -22.14980 | 16376 ft | 336 kts | 165° |
| 2026-04-29 16:37 | 63.49387 | -22.12719 | 16856 ft | 337 kts | 165° |
| 2026-04-29 16:37 | 63.47978 | -22.11217 | 17182 ft | 338 kts | 165° |
| 2026-04-29 16:38 | 63.45154 | -22.08225 | 17782 ft | 341 kts | 165° |
| 2026-04-29 16:38 | 63.43007 | -22.05952 | 18267 ft | 341 kts | 165° |
| 2026-04-29 16:38 | 63.40844 | -22.03663 | 18718 ft | 344 kts | 165° |
| 2026-04-29 16:38 | 63.38673 | -22.01367 | 19194 ft | 345 kts | 166° |
| 2026-04-29 16:39 | 63.36498 | -21.99071 | 19689 ft | 346 kts | 166° |
| 2026-04-29 16:39 | 63.34343 | -21.96805 | 20145 ft | 348 kts | 166° |
| 2026-04-29 16:39 | 63.32151 | -21.94503 | 20629 ft | 348 kts | 166° |
| 2026-04-29 16:39 | 63.29952 | -21.92194 | 21073 ft | 350 kts | 166° |
| 2026-04-29 16:40 | 63.27737 | -21.89876 | 21514 ft | 352 kts | 166° |
| 2026-04-29 16:40 | 63.25515 | -21.87551 | 21987 ft | 353 kts | 166° |
| 2026-04-29 16:40 | 63.23289 | -21.85226 | 22427 ft | 354 kts | 167° |
| 2026-04-29 16:40 | 63.21059 | -21.82905 | 22842 ft | 356 kts | 167° |
| 2026-04-29 16:41 | 63.18814 | -21.80569 | 23252 ft | 357 kts | 167° |
| 2026-04-29 16:41 | 63.16561 | -21.78229 | 23723 ft | 356 kts | 167° |
| 2026-04-29 16:41 | 63.14320 | -21.75908 | 24103 ft | 358 kts | 167° |
| 2026-04-29 16:41 | 63.12050 | -21.73561 | 24487 ft | 359 kts | 167° |
| 2026-04-29 16:42 | 63.09788 | -21.71198 | 24854 ft | 363 kts | 166° |
| 2026-04-29 16:42 | 63.07619 | -21.68153 | 25171 ft | 383 kts | 156° |
| 2026-04-29 16:42 | 63.05624 | -21.64095 | 25555 ft | 401 kts | 147° |
| 2026-04-29 16:42 | 63.03768 | -21.59420 | 25829 ft | 407 kts | 145° |
| 2026-04-29 16:43 | 63.01888 | -21.54713 | 26178 ft | 408 kts | 146° |
| 2026-04-29 16:43 | 63.00000 | -21.50056 | 26517 ft | 410 kts | 146° |
| 2026-04-29 16:43 | 62.98089 | -21.45343 | 26876 ft | 412 kts | 146° |
| 2026-04-29 16:43 | 62.96212 | -21.40680 | 27247 ft | 413 kts | 146° |
| 2026-04-29 16:44 | 62.94290 | -21.35930 | 27629 ft | 417 kts | 146° |
| 2026-04-29 16:44 | 62.92355 | -21.31171 | 28128 ft | 419 kts | 146° |
| 2026-04-29 16:44 | 62.90410 | -21.26401 | 28592 ft | 422 kts | 146° |
| 2026-04-29 16:44 | 62.88446 | -21.21583 | 29050 ft | 425 kts | 146° |
| 2026-04-29 16:45 | 62.86464 | -21.16731 | 29438 ft | 429 kts | 146° |
| 2026-04-29 16:45 | 62.85135 | -21.13489 | 29730 ft | 431 kts | 146° |
| 2026-04-29 16:45 | 62.83126 | -21.08587 | 30171 ft | 433 kts | 146° |
| 2026-04-29 16:45 | 62.81108 | -21.03679 | 30585 ft | 437 kts | 146° |
| 2026-04-29 16:46 | 62.79065 | -20.98725 | 30982 ft | 440 kts | 146° |
| 2026-04-29 16:46 | 62.77006 | -20.93742 | 31372 ft | 443 kts | 146° |
| 2026-04-29 16:46 | 62.74923 | -20.88714 | 31674 ft | 448 kts | 146° |
| 2026-04-29 16:46 | 62.72825 | -20.83650 | 32076 ft | 451 kts | 146° |
| 2026-04-29 16:47 | 62.70719 | -20.78579 | 32424 ft | 454 kts | 146° |
| 2026-04-29 16:47 | 62.68609 | -20.73520 | 32785 ft | 456 kts | 146° |
| 2026-04-29 16:47 | 62.66464 | -20.68389 | 33134 ft | 459 kts | 146° |
| 2026-04-29 16:47 | 62.64313 | -20.63248 | 33476 ft | 462 kts | 146° |
| 2026-04-29 16:48 | 62.62140 | -20.58068 | 33826 ft | 464 kts | 146° |
| 2026-04-29 16:48 | 62.59952 | -20.52868 | 34159 ft | 467 kts | 146° |
| 2026-04-29 16:48 | 62.57747 | -20.47645 | 34472 ft | 470 kts | 145° |
| 2026-04-29 16:48 | 62.55534 | -20.42411 | 34731 ft | 474 kts | 145° |
| 2026-04-29 16:49 | 62.53294 | -20.37121 | 35016 ft | 478 kts | 144° |
| 2026-04-29 16:49 | 62.51031 | -20.31792 | 35229 ft | 482 kts | 144° |
| 2026-04-29 16:49 | 62.48748 | -20.26433 | 35490 ft | 485 kts | 144° |
| 2026-04-29 16:49 | 62.46436 | -20.21017 | 35707 ft | 490 kts | 144° |
| 2026-04-29 16:50 | 62.44124 | -20.15604 | 35983 ft | 493 kts | 144° |
| 2026-04-29 16:50 | 62.41787 | -20.10154 | 36188 ft | 495 kts | 143° |
| 2026-04-29 16:50 | 62.39463 | -20.04755 | 36354 ft | 499 kts | 143° |
| 2026-04-29 16:50 | 62.37067 | -19.99345 | 36497 ft | 496 kts | 146° |
| 2026-04-29 16:51 | 62.34497 | -19.94415 | 36613 ft | 492 kts | 149° |
| 2026-04-29 16:51 | 62.31932 | -19.89518 | 36773 ft | 492 kts | 148° |
| 2026-04-29 16:51 | 62.29395 | -19.84604 | 37074 ft | 488 kts | 148° |
| 2026-04-29 16:51 | 62.26870 | -19.79758 | 37256 ft | 485 kts | 148° |
| 2026-04-29 16:52 | 62.21785 | -19.70175 | 37348 ft | 487 kts | 148° |
| 2026-04-29 16:52 | 62.16754 | -19.60598 | 37491 ft | 487 kts | 148° |
| 2026-04-29 16:53 | 62.11651 | -19.51027 | 37631 ft | 488 kts | 148° |
| 2026-04-29 16:53 | 62.06549 | -19.41436 | 37772 ft | 488 kts | 148° |
| 2026-04-29 16:54 | 62.01429 | -19.31899 | 37933 ft | 488 kts | 148° |
| 2026-04-29 16:54 | 61.96304 | -19.22372 | 38075 ft | 488 kts | 148° |
| 2026-04-29 16:55 | 61.91204 | -19.12950 | 38189 ft | 489 kts | 148° |
| 2026-04-29 16:55 | 61.86065 | -19.03492 | 38313 ft | 488 kts | 148° |
| 2026-04-29 16:56 | 61.80929 | -18.94082 | 38468 ft | 487 kts | 148° |
| 2026-04-29 16:56 | 61.75796 | -18.84726 | 38566 ft | 487 kts | 148° |
| 2026-04-29 16:57 | 61.70695 | -18.75466 | 38673 ft | 486 kts | 148° |
| 2026-04-29 16:57 | 61.65551 | -18.66175 | 38750 ft | 487 kts | 148° |
| 2026-04-29 16:58 | 61.60397 | -18.56902 | 38873 ft | 487 kts | 149° |
| 2026-04-29 16:58 | 61.55238 | -18.47668 | 38982 ft | 487 kts | 149° |
| 2026-04-29 16:59 | 61.50168 | -18.38128 | 39080 ft | 497 kts | 142° |
| 2026-04-29 16:59 | 61.45902 | -18.26498 | 39211 ft | 507 kts | 135° |
| 2026-04-29 17:00 | 61.41737 | -18.14609 | 39353 ft | 506 kts | 135° |
| 2026-04-29 17:00 | 61.37605 | -18.02810 | 39513 ft | 507 kts | 135° |
| 2026-04-29 17:01 | 61.35518 | -17.96868 | 39620 ft | 507 kts | 135° |
| 2026-04-29 17:01 | 61.33418 | -17.90936 | 39696 ft | 507 kts | 135° |
| 2026-04-29 17:01 | 61.29220 | -17.79099 | 39849 ft | 509 kts | 134° |
| 2026-04-29 17:02 | 61.27115 | -17.73166 | 39962 ft | 509 kts | 134° |
| 2026-04-29 17:02 | 61.25001 | -17.67246 | 40060 ft | 510 kts | 134° |
| 2026-04-29 17:02 | 61.22910 | -17.61410 | 40190 ft | 510 kts | 134° |
| 2026-04-29 17:02 | 61.20769 | -17.55436 | 40311 ft | 510 kts | 134° |
| 2026-04-29 17:03 | 61.18667 | -17.49582 | 40420 ft | 511 kts | 134° |
| 2026-04-29 17:03 | 61.16543 | -17.43686 | 40467 ft | 512 kts | 134° |
| 2026-04-29 17:03 | 61.12274 | -17.31888 | 40536 ft | 512 kts | 134° |
| 2026-04-29 17:04 | 61.07988 | -17.20097 | 40592 ft | 512 kts | 134° |
| 2026-04-29 17:04 | 61.03682 | -17.08318 | 40645 ft | 512 kts | 134° |
| 2026-04-29 17:05 | 60.99398 | -16.96653 | 40659 ft | 513 kts | 134° |
| 2026-04-29 17:05 | 60.95080 | -16.84954 | 40714 ft | 513 kts | 134° |
| 2026-04-29 17:06 | 60.90742 | -16.73265 | 40756 ft | 514 kts | 134° |
| 2026-04-29 17:06 | 60.86389 | -16.61591 | 40813 ft | 514 kts | 134° |
| 2026-04-29 17:07 | 60.82024 | -16.49948 | 40889 ft | 514 kts | 134° |
| 2026-04-29 17:07 | 60.77671 | -16.38391 | 40933 ft | 515 kts | 134° |
| 2026-04-29 17:08 | 60.73279 | -16.26790 | 41015 ft | 515 kts | 133° |
| 2026-04-29 17:08 | 60.68877 | -16.15220 | 41101 ft | 515 kts | 133° |
| 2026-04-29 17:09 | 60.64494 | -16.03757 | 41185 ft | 515 kts | 133° |
| 2026-04-29 17:09 | 60.60072 | -15.92252 | 41267 ft | 516 kts | 133° |
| 2026-04-29 17:10 | 60.55633 | -15.80757 | 41358 ft | 516 kts | 133° |
| 2026-04-29 17:10 | 60.51175 | -15.69270 | 41457 ft | 516 kts | 133° |
| 2026-04-29 17:11 | 60.46719 | -15.57847 | 41556 ft | 517 kts | 133° |
| 2026-04-29 17:11 | 60.42274 | -15.46507 | 41662 ft | 517 kts | 133° |
| 2026-04-29 17:12 | 60.37795 | -15.35135 | 41749 ft | 517 kts | 133° |
| 2026-04-29 17:12 | 60.34053 | -15.25681 | 41768 ft | 517 kts | 133° |
| 2026-04-29 17:13 | 60.28781 | -15.12420 | 41892 ft | 517 kts | 133° |
| 2026-04-29 17:13 | 60.24270 | -15.01136 | 42008 ft | 514 kts | 133° |
| 2026-04-29 17:14 | 60.19849 | -14.90120 | 41986 ft | 502 kts | 134° |
| 2026-04-29 17:14 | 60.15433 | -14.79201 | 41984 ft | 511 kts | 134° |
| 2026-04-29 17:15 | 60.10927 | -14.68067 | 42086 ft | 508 kts | 133° |
| 2026-04-29 17:15 | 60.06547 | -14.57323 | 42101 ft | 496 kts | 134° |
| 2026-04-29 17:16 | 60.02138 | -14.46567 | 42105 ft | 503 kts | 134° |
| 2026-04-29 17:16 | 59.97688 | -14.35729 | 42118 ft | 503 kts | 133° |
| 2026-04-29 17:17 | 59.93238 | -14.24969 | 42194 ft | 501 kts | 134° |
| 2026-04-29 17:17 | 59.88805 | -14.14287 | 42248 ft | 504 kts | 134° |
| 2026-04-29 17:18 | 59.84330 | -14.03554 | 42248 ft | 504 kts | 134° |
| 2026-04-29 17:18 | 59.79846 | -13.92852 | 42247 ft | 503 kts | 134° |
| 2026-04-29 17:19 | 59.75363 | -13.82201 | 42250 ft | 503 kts | 134° |
| 2026-04-29 17:19 | 59.70863 | -13.71559 | 42261 ft | 503 kts | 134° |
| 2026-04-29 17:20 | 59.66354 | -13.60945 | 42263 ft | 503 kts | 134° |
| 2026-04-29 17:20 | 59.61873 | -13.50444 | 42264 ft | 502 kts | 134° |
| 2026-04-29 17:21 | 59.57364 | -13.39925 | 42270 ft | 502 kts | 134° |
| 2026-04-29 17:21 | 59.52841 | -13.29423 | 42270 ft | 502 kts | 134° |
| 2026-04-29 17:22 | 59.48317 | -13.18965 | 42270 ft | 502 kts | 134° |
| 2026-04-29 17:22 | 59.43777 | -13.08517 | 42284 ft | 503 kts | 134° |
| 2026-04-29 17:23 | 59.39210 | -12.98056 | 42286 ft | 504 kts | 134° |
| 2026-04-29 17:23 | 59.34669 | -12.87699 | 42289 ft | 503 kts | 134° |
| 2026-04-29 17:24 | 59.30093 | -12.77312 | 42289 ft | 503 kts | 134° |
| 2026-04-29 17:24 | 59.25510 | -12.66954 | 42287 ft | 503 kts | 134° |
| 2026-04-29 17:25 | 59.20927 | -12.56643 | 42287 ft | 503 kts | 134° |
| 2026-04-29 17:25 | 59.16331 | -12.46346 | 42298 ft | 502 kts | 134° |
| 2026-04-29 17:26 | 59.11736 | -12.36100 | 42298 ft | 502 kts | 134° |
| 2026-04-29 17:26 | 59.07157 | -12.25935 | 42302 ft | 502 kts | 134° |
| 2026-04-29 17:27 | 59.02533 | -12.15712 | 42307 ft | 502 kts | 134° |
| 2026-04-29 17:27 | 58.97919 | -12.05557 | 42307 ft | 502 kts | 134° |
| 2026-04-29 17:28 | 58.93300 | -11.95438 | 42308 ft | 501 kts | 134° |
| 2026-04-29 17:28 | 58.88694 | -11.85391 | 42317 ft | 501 kts | 134° |
| 2026-04-29 17:29 | 58.84064 | -11.75335 | 42317 ft | 501 kts | 134° |
| 2026-04-29 17:29 | 58.80209 | -11.66995 | 42317 ft | 501 kts | 134° |
| 2026-04-29 17:30 | 58.74797 | -11.55338 | 42326 ft | 500 kts | 134° |
| 2026-04-29 17:30 | 58.70142 | -11.45359 | 42327 ft | 500 kts | 134° |
| 2026-04-29 17:31 | 58.65480 | -11.35407 | 42326 ft | 500 kts | 134° |
| 2026-04-29 17:31 | 58.60834 | -11.25533 | 42336 ft | 500 kts | 134° |
| 2026-04-29 17:32 | 58.56156 | -11.15632 | 42341 ft | 500 kts | 134° |
| 2026-04-29 17:32 | 58.52264 | -11.07428 | 42346 ft | 500 kts | 134° |
| 2026-04-29 17:33 | 58.47579 | -10.97591 | 42337 ft | 500 kts | 134° |
| 2026-04-29 17:33 | 58.42880 | -10.87766 | 42344 ft | 500 kts | 134° |
| 2026-04-29 17:34 | 58.38176 | -10.77972 | 42337 ft | 500 kts | 134° |
| 2026-04-29 17:34 | 58.33465 | -10.68207 | 42352 ft | 500 kts | 134° |
| 2026-04-29 17:35 | 58.26415 | -10.53667 | 42353 ft | 500 kts | 134° |
| 2026-04-29 17:36 | 58.21680 | -10.43955 | 42381 ft | 500 kts | 134° |
| 2026-04-29 17:36 | 58.16953 | -10.34298 | 42382 ft | 500 kts | 134° |
| 2026-04-29 17:37 | 58.12214 | -10.24658 | 42382 ft | 499 kts | 134° |
| 2026-04-29 17:37 | 58.07501 | -10.15113 | 42383 ft | 499 kts | 134° |
| 2026-04-29 17:38 | 58.02758 | -10.05543 | 42382 ft | 499 kts | 134° |
| 2026-04-29 17:38 | 57.98778 | -9.94806 | 42377 ft | 503 kts | 118° |
| 2026-04-29 17:39 | 57.96223 | -9.82481 | 42396 ft | 505 kts | 110° |
| 2026-04-29 17:39 | 57.93630 | -9.70219 | 42395 ft | 503 kts | 115° |
| 2026-04-29 17:40 | 57.90896 | -9.58178 | 42392 ft | 503 kts | 116° |
| 2026-04-29 17:40 | 57.87075 | -9.47293 | 42373 ft | 499 kts | 133° |
| 2026-04-29 17:41 | 57.81745 | -9.39067 | 42385 ft | 495 kts | 148° |
| 2026-04-29 17:41 | 57.75855 | -9.32390 | 42396 ft | 496 kts | 149° |
| 2026-04-29 17:42 | 57.70233 | -9.24821 | 42392 ft | 497 kts | 143° |
| 2026-04-29 17:42 | 57.64642 | -9.17367 | 42392 ft | 496 kts | 147° |
| 2026-04-29 17:43 | 57.58961 | -9.10025 | 42393 ft | 496 kts | 144° |
| 2026-04-29 17:43 | 57.53344 | -9.02568 | 42393 ft | 496 kts | 146° |
| 2026-04-29 17:44 | 57.47660 | -8.95254 | 42393 ft | 496 kts | 145° |
| 2026-04-29 17:44 | 57.42013 | -8.87855 | 42393 ft | 496 kts | 146° |
| 2026-04-29 17:45 | 57.36371 | -8.80610 | 42393 ft | 496 kts | 146° |
| 2026-04-29 17:45 | 57.30704 | -8.73279 | 42394 ft | 496 kts | 146° |
| 2026-04-29 17:46 | 57.25020 | -8.66007 | 42394 ft | 496 kts | 146° |
| 2026-04-29 17:46 | 57.19342 | -8.58737 | 42394 ft | 496 kts | 146° |
| 2026-04-29 17:47 | 57.13686 | -8.51543 | 42394 ft | 497 kts | 146° |
| 2026-04-29 17:47 | 57.08002 | -8.44329 | 42395 ft | 496 kts | 146° |
| 2026-04-29 17:48 | 57.02317 | -8.37148 | 42395 ft | 496 kts | 146° |
| 2026-04-29 17:48 | 56.96613 | -8.29966 | 42395 ft | 496 kts | 146° |
| 2026-04-29 17:49 | 56.90926 | -8.22833 | 42395 ft | 496 kts | 146° |
| 2026-04-29 17:49 | 56.85233 | -8.15720 | 42396 ft | 494 kts | 146° |
| 2026-04-29 17:50 | 56.79553 | -8.08651 | 42395 ft | 494 kts | 146° |
| 2026-04-29 17:50 | 56.73879 | -8.01614 | 42397 ft | 497 kts | 146° |
| 2026-04-29 17:51 | 56.68161 | -7.94549 | 42400 ft | 495 kts | 146° |
| 2026-04-29 17:51 | 56.62480 | -7.87557 | 42399 ft | 495 kts | 146° |
| 2026-04-29 17:52 | 56.56774 | -7.80559 | 42399 ft | 495 kts | 146° |
| 2026-04-29 17:52 | 56.51023 | -7.73532 | 42399 ft | 496 kts | 146° |
| 2026-04-29 17:53 | 56.45331 | -7.66604 | 42389 ft | 496 kts | 146° |
| 2026-04-29 17:53 | 56.39601 | -7.59654 | 42389 ft | 495 kts | 146° |
| 2026-04-29 17:54 | 56.33867 | -7.52725 | 42389 ft | 496 kts | 146° |
| 2026-04-29 17:54 | 56.28166 | -7.45862 | 42389 ft | 496 kts | 146° |
| 2026-04-29 17:55 | 56.22421 | -7.38970 | 42389 ft | 495 kts | 146° |
| 2026-04-29 17:55 | 56.16675 | -7.32103 | 42390 ft | 495 kts | 146° |
| 2026-04-29 17:56 | 56.10925 | -7.25256 | 42389 ft | 495 kts | 146° |
| 2026-04-29 17:56 | 56.05209 | -7.18475 | 42380 ft | 496 kts | 146° |
| 2026-04-29 17:57 | 55.99462 | -7.11681 | 42380 ft | 495 kts | 146° |
| 2026-04-29 17:57 | 55.93710 | -7.04905 | 42372 ft | 493 kts | 146° |
| 2026-04-29 17:58 | 55.87989 | -6.98190 | 42365 ft | 491 kts | 146° |
| 2026-04-29 17:58 | 55.82257 | -6.91488 | 42363 ft | 492 kts | 146° |
| 2026-04-29 17:59 | 55.76563 | -6.84852 | 42362 ft | 492 kts | 146° |
| 2026-04-29 17:59 | 55.70834 | -6.78199 | 42358 ft | 493 kts | 146° |
| 2026-04-29 18:00 | 55.65089 | -6.71553 | 42357 ft | 492 kts | 146° |
| 2026-04-29 18:00 | 55.59344 | -6.64930 | 42352 ft | 492 kts | 146° |
| 2026-04-29 18:01 | 55.53590 | -6.58319 | 42359 ft | 492 kts | 146° |
| 2026-04-29 18:01 | 55.47875 | -6.51775 | 42339 ft | 492 kts | 146° |
| 2026-04-29 18:02 | 55.42131 | -6.45223 | 42352 ft | 492 kts | 146° |
| 2026-04-29 18:02 | 55.36369 | -6.38673 | 42341 ft | 493 kts | 146° |
| 2026-04-29 18:03 | 55.30630 | -6.32173 | 42342 ft | 492 kts | 146° |
| 2026-04-29 18:03 | 55.24872 | -6.25672 | 42349 ft | 491 kts | 146° |
| 2026-04-29 18:04 | 55.19106 | -6.19187 | 42350 ft | 491 kts | 146° |
| 2026-04-29 18:04 | 55.13358 | -6.12743 | 42357 ft | 490 kts | 146° |
| 2026-04-29 18:05 | 55.07623 | -6.06337 | 42354 ft | 488 kts | 146° |
| 2026-04-29 18:05 | 55.01899 | -5.99965 | 42354 ft | 487 kts | 146° |
| 2026-04-29 18:06 | 54.96204 | -5.93646 | 42360 ft | 488 kts | 146° |
| 2026-04-29 18:06 | 54.90451 | -5.87286 | 42355 ft | 489 kts | 146° |
| 2026-04-29 18:07 | 54.84719 | -5.80970 | 42358 ft | 488 kts | 146° |
| 2026-04-29 18:07 | 54.78984 | -5.74672 | 42355 ft | 487 kts | 146° |
| 2026-04-29 18:08 | 54.73252 | -5.68400 | 42351 ft | 487 kts | 146° |
| 2026-04-29 18:08 | 54.67543 | -5.62172 | 42359 ft | 487 kts | 146° |
| 2026-04-29 18:09 | 54.61822 | -5.55955 | 42353 ft | 486 kts | 146° |
| 2026-04-29 18:09 | 54.56153 | -5.49814 | 42339 ft | 476 kts | 146° |
| 2026-04-29 18:10 | 54.50510 | -5.43713 | 42237 ft | 483 kts | 146° |
| 2026-04-29 18:10 | 54.47626 | -5.40594 | 41863 ft | 495 kts | 146° |
| 2026-04-29 18:10 | 54.44703 | -5.37432 | 41472 ft | 496 kts | 146° |
| 2026-04-29 18:10 | 54.41838 | -5.34337 | 40997 ft | 484 kts | 146° |
| 2026-04-29 18:11 | 54.39000 | -5.31280 | 40506 ft | 472 kts | 146° |
| 2026-04-29 18:11 | 54.36263 | -5.28336 | 40019 ft | 468 kts | 146° |
| 2026-04-29 18:11 | 54.33496 | -5.25362 | 39518 ft | 473 kts | 146° |
| 2026-04-29 18:11 | 54.30702 | -5.22362 | 39002 ft | 475 kts | 146° |
| 2026-04-29 18:12 | 54.27915 | -5.19371 | 38463 ft | 470 kts | 146° |
| 2026-04-29 18:12 | 54.25151 | -5.16410 | 37864 ft | 467 kts | 146° |
| 2026-04-29 18:12 | 54.22420 | -5.13490 | 37213 ft | 460 kts | 146° |
| 2026-04-29 18:12 | 54.19700 | -5.10586 | 36525 ft | 461 kts | 146° |
| 2026-04-29 18:13 | 54.17018 | -5.07724 | 35794 ft | 449 kts | 146° |
| 2026-04-29 18:13 | 54.14386 | -5.04922 | 35046 ft | 442 kts | 146° |
| 2026-04-29 18:13 | 54.11787 | -5.02160 | 34292 ft | 437 kts | 146° |
| 2026-04-29 18:13 | 54.09240 | -4.99460 | 33544 ft | 426 kts | 146° |
| 2026-04-29 18:14 | 54.06757 | -4.96833 | 32780 ft | 421 kts | 146° |
| 2026-04-29 18:14 | 54.04297 | -4.94235 | 32014 ft | 413 kts | 146° |
| 2026-04-29 18:14 | 54.01873 | -4.91681 | 31252 ft | 405 kts | 147° |
| 2026-04-29 18:14 | 53.99504 | -4.89189 | 30497 ft | 398 kts | 147° |
| 2026-04-29 18:15 | 53.97165 | -4.86732 | 29753 ft | 392 kts | 147° |
| 2026-04-29 18:15 | 53.94866 | -4.84318 | 29141 ft | 384 kts | 147° |
| 2026-04-29 18:15 | 53.92652 | -4.82000 | 29205 ft | 368 kts | 147° |
| 2026-04-29 18:15 | 53.90497 | -4.79746 | 28959 ft | 363 kts | 147° |
| 2026-04-29 18:16 | 53.88338 | -4.77430 | 28184 ft | 368 kts | 143° |
| 2026-04-29 18:16 | 53.86594 | -4.74250 | 27351 ft | 369 kts | 126° |
| 2026-04-29 18:16 | 53.85379 | -4.70445 | 26578 ft | 366 kts | 114° |
| 2026-04-29 18:16 | 53.84592 | -4.66374 | 25846 ft | 359 kts | 109° |
| 2026-04-29 18:17 | 53.83845 | -4.62367 | 25107 ft | 353 kts | 110° |
| 2026-04-29 18:17 | 53.83068 | -4.58476 | 24370 ft | 347 kts | 111° |
| 2026-04-29 18:17 | 53.82288 | -4.54627 | 23626 ft | 343 kts | 110° |
| 2026-04-29 18:17 | 53.81554 | -4.50914 | 23139 ft | 328 kts | 110° |
| 2026-04-29 18:18 | 53.80735 | -4.47405 | 22717 ft | 314 kts | 113° |
| 2026-04-29 18:18 | 53.79948 | -4.43985 | 22306 ft | 308 kts | 112° |
| 2026-04-29 18:18 | 53.79179 | -4.40618 | 21892 ft | 306 kts | 112° |
| 2026-04-29 18:18 | 53.78399 | -4.37273 | 21482 ft | 306 kts | 113° |
| 2026-04-29 18:19 | 53.77613 | -4.33927 | 21083 ft | 306 kts | 113° |
| 2026-04-29 18:19 | 53.76833 | -4.30581 | 20676 ft | 307 kts | 112° |
| 2026-04-29 18:19 | 53.76050 | -4.27228 | 20274 ft | 306 kts | 112° |
| 2026-04-29 18:19 | 53.75269 | -4.23892 | 19867 ft | 304 kts | 112° |
| 2026-04-29 18:20 | 53.74503 | -4.20624 | 19469 ft | 301 kts | 112° |
| 2026-04-29 18:20 | 53.73733 | -4.17351 | 19064 ft | 298 kts | 112° |
| 2026-04-29 18:20 | 53.72968 | -4.14103 | 18672 ft | 295 kts | 112° |
| 2026-04-29 18:20 | 53.72468 | -4.11980 | 18415 ft | 293 kts | 112° |
| 2026-04-29 18:21 | 53.71718 | -4.08797 | 18019 ft | 290 kts | 112° |
| 2026-04-29 18:21 | 53.70972 | -4.05642 | 17642 ft | 288 kts | 112° |
| 2026-04-29 18:21 | 53.69989 | -4.01493 | 17130 ft | 286 kts | 112° |
| 2026-04-29 18:21 | 53.69490 | -3.99387 | 16658 ft | 286 kts | 112° |
| 2026-04-29 18:22 | 53.68759 | -3.96305 | 16375 ft | 275 kts | 112° |
| 2026-04-29 18:22 | 53.68061 | -3.93368 | 16130 ft | 273 kts | 112° |
| 2026-04-29 18:22 | 53.67342 | -3.90348 | 15733 ft | 280 kts | 112° |
| 2026-04-29 18:22 | 53.66616 | -3.87302 | 15366 ft | 281 kts | 112° |
| 2026-04-29 18:23 | 53.65886 | -3.84244 | 14995 ft | 280 kts | 112° |
| 2026-04-29 18:23 | 53.65159 | -3.81197 | 14624 ft | 279 kts | 112° |
| 2026-04-29 18:23 | 53.64433 | -3.78165 | 14249 ft | 278 kts | 112° |
| 2026-04-29 18:23 | 53.63714 | -3.75166 | 13883 ft | 276 kts | 112° |
| 2026-04-29 18:24 | 53.62994 | -3.72169 | 13520 ft | 274 kts | 112° |
| 2026-04-29 18:24 | 53.62281 | -3.69201 | 13150 ft | 272 kts | 112° |
| 2026-04-29 18:24 | 53.61458 | -3.66364 | 12750 ft | 271 kts | 124° |
| 2026-04-29 18:24 | 53.60214 | -3.64009 | 12427 ft | 269 kts | 133° |
| 2026-04-29 18:25 | 53.58848 | -3.61848 | 12081 ft | 269 kts | 135° |
| 2026-04-29 18:25 | 53.57479 | -3.59700 | 11749 ft | 268 kts | 134° |
| 2026-04-29 18:25 | 53.56141 | -3.57519 | 11313 ft | 270 kts | 134° |
| 2026-04-29 18:25 | 53.54799 | -3.55324 | 10989 ft | 265 kts | 134° |
| 2026-04-29 18:26 | 53.53460 | -3.53161 | 10609 ft | 266 kts | 134° |
| 2026-04-29 18:26 | 53.52138 | -3.51029 | 10239 ft | 266 kts | 134° |
| 2026-04-29 18:26 | 53.50807 | -3.48883 | 9863 ft | 265 kts | 134° |
| 2026-04-29 18:26 | 53.49477 | -3.46737 | 9487 ft | 265 kts | 134° |
| 2026-04-29 18:27 | 53.48227 | -3.44497 | 9077 ft | 259 kts | 124° |
| 2026-04-29 18:27 | 53.47434 | -3.41879 | 8682 ft | 256 kts | 115° |
| 2026-04-29 18:27 | 53.46656 | -3.39129 | 8316 ft | 262 kts | 116° |
| 2026-04-29 18:27 | 53.45887 | -3.36503 | 7922 ft | 239 kts | 116° |
| 2026-04-29 18:28 | 53.45203 | -3.34159 | 7433 ft | 207 kts | 116° |
| 2026-04-29 18:28 | 53.44581 | -3.32000 | 6972 ft | 211 kts | 115° |
| 2026-04-29 18:28 | 53.43756 | -3.29892 | 6459 ft | 221 kts | 131° |
| 2026-04-29 18:28 | 53.42532 | -3.28367 | 5931 ft | 226 kts | 155° |
| 2026-04-29 18:29 | 53.40940 | -3.28186 | 5414 ft | 233 kts | 179° |
| 2026-04-29 18:29 | 53.39340 | -3.28623 | 5048 ft | 231 kts | 185° |
| 2026-04-29 18:29 | 53.37790 | -3.29230 | 4725 ft | 225 kts | 186° |
| 2026-04-29 18:29 | 53.36286 | -3.29844 | 4386 ft | 221 kts | 186° |
| 2026-04-29 18:30 | 53.34792 | -3.30260 | 3968 ft | 212 kts | 168° |
| 2026-04-29 18:30 | 53.33547 | -3.29228 | 3436 ft | 199 kts | 127° |
| 2026-04-29 18:30 | 53.33106 | -3.27173 | 3294 ft | 179 kts | 97° |
| 2026-04-29 18:30 | 53.32957 | -3.25151 | 3348 ft | 175 kts | 96° |
| 2026-04-29 18:31 | 53.32805 | -3.23123 | 3353 ft | 176 kts | 96° |
| 2026-04-29 18:31 | 53.32655 | -3.21103 | 3342 ft | 178 kts | 96° |
| 2026-04-29 18:31 | 53.32403 | -3.19051 | 3214 ft | 183 kts | 104° |
| 2026-04-29 18:31 | 53.32097 | -3.17026 | 3043 ft | 176 kts | 99° |
| 2026-04-29 18:32 | 53.32019 | -3.15043 | 2869 ft | 167 kts | 89° |
| 2026-04-29 18:32 | 53.32149 | -3.11450 | 2818 ft | 146 kts | 86° |
| 2026-04-29 18:32 | 53.32226 | -3.09821 | 2757 ft | 136 kts | 87° |
| 2026-04-29 18:33 | 53.32297 | -3.08258 | 2588 ft | 138 kts | 87° |
| 2026-04-29 18:33 | 53.32371 | -3.06623 | 2406 ft | 141 kts | 87° |
| 2026-04-29 18:33 | 53.32446 | -3.04985 | 2225 ft | 143 kts | 87° |
| 2026-04-29 18:33 | 53.32522 | -3.03317 | 2036 ft | 145 kts | 87° |
| 2026-04-29 18:34 | 53.32598 | -3.01695 | 1830 ft | 132 kts | 88° |
| 2026-04-29 18:34 | 53.32646 | -3.00685 | 1707 ft | 127 kts | 87° |
| 2026-04-29 18:34 | 53.32743 | -2.98829 | 1423 ft | 117 kts | 86° |
| 2026-04-29 18:34 | 53.32797 | -2.97491 | 1218 ft | 115 kts | 88° |
| 2026-04-29 18:35 | 53.32842 | -2.96158 | 1060 ft | 115 kts | 88° |
| 2026-04-29 18:35 | 53.32900 | -2.94833 | 948 ft | 116 kts | 86° |
| 2026-04-29 18:35 | 53.32974 | -2.93467 | 782 ft | 119 kts | 87° |
| 2026-04-29 18:35 | 53.33036 | -2.92088 | 653 ft | 118 kts | 87° |
| 2026-04-29 18:36 | 53.33104 | -2.90712 | 539 ft | 119 kts | 86° |
| 2026-04-29 18:36 | 53.33166 | -2.89337 | 415 ft | 118 kts | 87° |
| 2026-04-29 18:36 | 53.33227 | -2.87976 | 277 ft | 117 kts | 87° |
| 2026-04-29 18:36 | 53.33287 | -2.86604 | 122 ft | 119 kts | 86° |
| 2026-04-29 18:37 | 53.33346 | -2.85313 | 89 ft | 95 kts | 85° |
| 2026-04-29 18:37 | 53.33384 | -2.84517 | 86 ft | 55 kts | 84° |
| 2026-04-29 18:37 | 53.33409 | -2.83953 | 87 ft | 42 kts | 84° |
| 2026-04-29 18:37 | 53.33433 | -2.83645 | 85 ft | 15 kts | 52° |
| 2026-04-29 18:38 | 53.33519 | -2.83632 | 89 ft | 11 kts | 354° |
| 2026-04-29 18:38 | 53.33583 | -2.83660 | 88 ft | 8 kts | 300° |
| 2026-04-29 18:38 | 53.33585 | -2.83746 | 86 ft | 7 kts | 264° |
| 2026-04-29 18:38 | 53.33580 | -2.83827 | 89 ft | 7 kts | 264° |
| 2026-04-29 18:39 | 53.33577 | -2.83905 | 89 ft | 6 kts | 280° |
| 2026-04-29 18:39 | 53.33601 | -2.83926 | 89 ft | 4 kts | 355° |
| 2026-04-29 18:39 | 53.33643 | -2.83931 | 88 ft | 8 kts | 355° |
| 2026-04-29 18:39 | 53.33695 | -2.83938 | 88 ft | 7 kts | 355° |
| 2026-04-29 18:40 | 53.33718 | -2.83947 | 87 ft | 1 kts | 310° |
| 2026-04-29 18:40 | 53.33722 | -2.83976 | 87 ft | 0 kts | 273° |
| 2026-04-29 18:40 | 53.33722 | -2.83979 | 86 ft | 0 kts | 262° |